sensor_id;sensor_type;location;lat;lon;timestamp;P1;durP1;ratioP1;P2;durP2;ratioP2
37409;SDS011;23275;48.914;12.566;2023-02-01T00:01:36;12.07;;;6.50;;
37409;SDS011;23275;48.914;12.566;2023-02-01T00:04:01;17.05;;;5.93;;
37409;SDS011;23275;48.914;12.566;2023-02-01T00:06:27;10.20;;;5.45;;
37409;SDS011;23275;48.914;12.566;2023-02-01T00:08:53;14.75;;;7.30;;
37409;SDS011;23275;48.914;12.566;2023-02-01T00:11:19;8.00;;;4.38;;
37409;SDS011;23275;48.914;12.566;2023-02-01T00:13:45;8.10;;;4.57;;
37409;SDS011;23275;48.914;12.566;2023-02-01T00:16:19;9.45;;;4.78;;
37409;SDS011;23275;48.914;12.566;2023-02-01T00:18:46;10.93;;;4.60;;
37409;SDS011;23275;48.914;12.566;2023-02-01T00:21:13;10.07;;;5.10;;
37409;SDS011;23275;48.914;12.566;2023-02-01T00:23:40;8.63;;;5.07;;
37409;SDS011;23275;48.914;12.566;2023-02-01T00:26:06;11.70;;;5.38;;
37409;SDS011;23275;48.914;12.566;2023-02-01T00:28:37;17.23;;;8.27;;
37409;SDS011;23275;48.914;12.566;2023-02-01T00:31:03;9.10;;;4.55;;
37409;SDS011;23275;48.914;12.566;2023-02-01T00:33:29;8.93;;;4.60;;
37409;SDS011;23275;48.914;12.566;2023-02-01T00:36:00;11.15;;;5.35;;
37409;SDS011;23275;48.914;12.566;2023-02-01T00:38:28;13.75;;;5.15;;
37409;SDS011;23275;48.914;12.566;2023-02-01T00:41:01;12.75;;;5.95;;
37409;SDS011;23275;48.914;12.566;2023-02-01T00:43:34;11.57;;;5.22;;
37409;SDS011;23275;48.914;12.566;2023-02-01T00:46:00;8.27;;;4.13;;
37409;SDS011;23275;48.914;12.566;2023-02-01T00:48:26;6.72;;;3.50;;
37409;SDS011;23275;48.914;12.566;2023-02-01T00:50:52;9.88;;;5.38;;
37409;SDS011;23275;48.914;12.566;2023-02-01T00:53:18;8.85;;;4.13;;
37409;SDS011;23275;48.914;12.566;2023-02-01T00:55:47;7.80;;;4.10;;
37409;SDS011;23275;48.914;12.566;2023-02-01T00:58:13;8.27;;;3.97;;
37409;SDS011;23275;48.914;12.566;2023-02-01T01:00:39;8.77;;;3.70;;
37409;SDS011;23275;48.914;12.566;2023-02-01T01:03:05;7.28;;;3.60;;
37409;SDS011;23275;48.914;12.566;2023-02-01T01:05:45;8.80;;;4.20;;
37409;SDS011;23275;48.914;12.566;2023-02-01T01:08:12;8.25;;;3.83;;
37409;SDS011;23275;48.914;12.566;2023-02-01T01:10:38;7.32;;;3.97;;
37409;SDS011;23275;48.914;12.566;2023-02-01T01:13:04;10.40;;;3.90;;
37409;SDS011;23275;48.914;12.566;2023-02-01T01:15:29;10.18;;;5.38;;
37409;SDS011;23275;48.914;12.566;2023-02-01T01:17:55;8.68;;;4.05;;
37409;SDS011;23275;48.914;12.566;2023-02-01T01:20:21;7.70;;;4.22;;
37409;SDS011;23275;48.914;12.566;2023-02-01T01:22:46;6.90;;;4.07;;
37409;SDS011;23275;48.914;12.566;2023-02-01T01:25:13;7.43;;;3.95;;
37409;SDS011;23275;48.914;12.566;2023-02-01T01:27:39;9.32;;;4.32;;
37409;SDS011;23275;48.914;12.566;2023-02-01T01:30:05;7.63;;;3.80;;
37409;SDS011;23275;48.914;12.566;2023-02-01T01:32:32;8.73;;;3.55;;
37409;SDS011;23275;48.914;12.566;2023-02-01T01:34:58;8.48;;;3.90;;
37409;SDS011;23275;48.914;12.566;2023-02-01T01:37:23;9.38;;;3.85;;
37409;SDS011;23275;48.914;12.566;2023-02-01T01:39:49;8.77;;;4.22;;
37409;SDS011;23275;48.914;12.566;2023-02-01T01:42:14;6.85;;;4.07;;
37409;SDS011;23275;48.914;12.566;2023-02-01T01:47:23;6.97;;;4.15;;
37409;SDS011;23275;48.914;12.566;2023-02-01T01:49:51;8.73;;;4.32;;
37409;SDS011;23275;48.914;12.566;2023-02-01T01:52:16;9.48;;;4.20;;
37409;SDS011;23275;48.914;12.566;2023-02-01T01:54:45;9.15;;;3.75;;
37409;SDS011;23275;48.914;12.566;2023-02-01T01:57:18;5.78;;;3.80;;
37409;SDS011;23275;48.914;12.566;2023-02-01T01:59:48;8.38;;;4.00;;
37409;SDS011;23275;48.914;12.566;2023-02-01T02:02:19;8.27;;;3.40;;
37409;SDS011;23275;48.914;12.566;2023-02-01T02:04:45;9.30;;;4.28;;
37409;SDS011;23275;48.914;12.566;2023-02-01T02:07:13;9.07;;;4.18;;
37409;SDS011;23275;48.914;12.566;2023-02-01T02:09:42;5.55;;;3.40;;
37409;SDS011;23275;48.914;12.566;2023-02-01T02:12:08;7.35;;;3.53;;
37409;SDS011;23275;48.914;12.566;2023-02-01T02:14:34;7.78;;;3.75;;
37409;SDS011;23275;48.914;12.566;2023-02-01T02:17:11;9.45;;;3.50;;
37409;SDS011;23275;48.914;12.566;2023-02-01T02:31:14;7.32;;;3.70;;
37409;SDS011;23275;48.914;12.566;2023-02-01T02:33:56;7.55;;;3.90;;
37409;SDS011;23275;48.914;12.566;2023-02-01T02:39:08;6.38;;;3.60;;
37409;SDS011;23275;48.914;12.566;2023-02-01T02:44:49;6.03;;;4.05;;
37409;SDS011;23275;48.914;12.566;2023-02-01T02:50:24;7.57;;;3.70;;
37409;SDS011;23275;48.914;12.566;2023-02-01T02:53:38;8.85;;;5.55;;
37409;SDS011;23275;48.914;12.566;2023-02-01T02:56:37;6.53;;;4.13;;
37409;SDS011;23275;48.914;12.566;2023-02-01T02:59:23;10.90;;;4.68;;
37409;SDS011;23275;48.914;12.566;2023-02-01T03:02:11;7.78;;;3.78;;
37409;SDS011;23275;48.914;12.566;2023-02-01T03:04:57;7.47;;;3.88;;
37409;SDS011;23275;48.914;12.566;2023-02-01T03:10:15;6.63;;;3.38;;
37409;SDS011;23275;48.914;12.566;2023-02-01T03:13:10;7.65;;;3.65;;
37409;SDS011;23275;48.914;12.566;2023-02-01T03:15:43;6.85;;;3.90;;
37409;SDS011;23275;48.914;12.566;2023-02-01T03:18:42;7.50;;;3.80;;
37409;SDS011;23275;48.914;12.566;2023-02-01T03:24:01;7.53;;;4.15;;
37409;SDS011;23275;48.914;12.566;2023-02-01T03:26:32;8.05;;;4.10;;
37409;SDS011;23275;48.914;12.566;2023-02-01T03:29:17;6.95;;;3.90;;
37409;SDS011;23275;48.914;12.566;2023-02-01T03:31:46;6.68;;;4.13;;
37409;SDS011;23275;48.914;12.566;2023-02-01T03:34:12;6.15;;;3.53;;
37409;SDS011;23275;48.914;12.566;2023-02-01T03:39:25;8.35;;;4.20;;
37409;SDS011;23275;48.914;12.566;2023-02-01T03:42:01;9.25;;;4.28;;
37409;SDS011;23275;48.914;12.566;2023-02-01T03:44:39;6.82;;;3.42;;
37409;SDS011;23275;48.914;12.566;2023-02-01T03:47:27;7.45;;;4.22;;
37409;SDS011;23275;48.914;12.566;2023-02-01T03:49:57;6.97;;;3.58;;
37409;SDS011;23275;48.914;12.566;2023-02-01T03:52:30;8.45;;;4.32;;
37409;SDS011;23275;48.914;12.566;2023-02-01T03:55:00;7.47;;;4.30;;
37409;SDS011;23275;48.914;12.566;2023-02-01T03:57:28;6.85;;;3.83;;
37409;SDS011;23275;48.914;12.566;2023-02-01T04:02:30;7.72;;;3.88;;
37409;SDS011;23275;48.914;12.566;2023-02-01T04:04:55;8.48;;;4.20;;
37409;SDS011;23275;48.914;12.566;2023-02-01T04:07:21;8.30;;;3.47;;
37409;SDS011;23275;48.914;12.566;2023-02-01T04:09:47;7.10;;;3.55;;
37409;SDS011;23275;48.914;12.566;2023-02-01T04:12:12;6.28;;;3.78;;
37409;SDS011;23275;48.914;12.566;2023-02-01T04:14:38;7.18;;;3.60;;
37409;SDS011;23275;48.914;12.566;2023-02-01T04:17:03;7.45;;;4.15;;
37409;SDS011;23275;48.914;12.566;2023-02-01T04:19:29;5.47;;;3.08;;
37409;SDS011;23275;48.914;12.566;2023-02-01T04:21:54;5.53;;;3.05;;
37409;SDS011;23275;48.914;12.566;2023-02-01T04:24:20;6.13;;;3.10;;
37409;SDS011;23275;48.914;12.566;2023-02-01T04:26:45;7.47;;;3.10;;
37409;SDS011;23275;48.914;12.566;2023-02-01T04:29:11;5.43;;;3.05;;
37409;SDS011;23275;48.914;12.566;2023-02-01T04:31:37;5.25;;;3.10;;
37409;SDS011;23275;48.914;12.566;2023-02-01T04:34:02;5.95;;;2.70;;
37409;SDS011;23275;48.914;12.566;2023-02-01T04:36:28;4.88;;;2.50;;
37409;SDS011;23275;48.914;12.566;2023-02-01T04:38:53;6.70;;;3.13;;
37409;SDS011;23275;48.914;12.566;2023-02-01T04:41:19;5.22;;;2.60;;
37409;SDS011;23275;48.914;12.566;2023-02-01T04:43:47;5.55;;;2.70;;
37409;SDS011;23275;48.914;12.566;2023-02-01T04:46:14;6.30;;;3.40;;
37409;SDS011;23275;48.914;12.566;2023-02-01T04:48:40;4.63;;;3.00;;
37409;SDS011;23275;48.914;12.566;2023-02-01T04:51:06;5.38;;;2.60;;
37409;SDS011;23275;48.914;12.566;2023-02-01T04:53:33;5.07;;;2.90;;
37409;SDS011;23275;48.914;12.566;2023-02-01T04:55:58;4.80;;;2.28;;
37409;SDS011;23275;48.914;12.566;2023-02-01T04:58:24;5.57;;;3.05;;
37409;SDS011;23275;48.914;12.566;2023-02-01T05:00:49;6.70;;;2.17;;
37409;SDS011;23275;48.914;12.566;2023-02-01T05:03:16;4.63;;;2.60;;
37409;SDS011;23275;48.914;12.566;2023-02-01T05:05:42;5.38;;;2.60;;
37409;SDS011;23275;48.914;12.566;2023-02-01T05:08:07;4.50;;;2.50;;
37409;SDS011;23275;48.914;12.566;2023-02-01T05:10:33;4.80;;;2.60;;
37409;SDS011;23275;48.914;12.566;2023-02-01T05:12:58;5.18;;;2.65;;
37409;SDS011;23275;48.914;12.566;2023-02-01T05:15:42;5.30;;;2.70;;
37409;SDS011;23275;48.914;12.566;2023-02-01T05:18:08;5.75;;;2.40;;
37409;SDS011;23275;48.914;12.566;2023-02-01T05:20:33;4.47;;;2.60;;
37409;SDS011;23275;48.914;12.566;2023-02-01T05:23:00;4.60;;;2.22;;
37409;SDS011;23275;48.914;12.566;2023-02-01T05:25:25;5.22;;;2.20;;
37409;SDS011;23275;48.914;12.566;2023-02-01T05:27:51;8.20;;;2.97;;
37409;SDS011;23275;48.914;12.566;2023-02-01T05:30:17;6.32;;;3.10;;
37409;SDS011;23275;48.914;12.566;2023-02-01T05:32:43;5.20;;;2.88;;
37409;SDS011;23275;48.914;12.566;2023-02-01T05:35:09;6.90;;;3.00;;
37409;SDS011;23275;48.914;12.566;2023-02-01T05:37:35;5.18;;;2.83;;
37409;SDS011;23275;48.914;12.566;2023-02-01T05:40:00;4.63;;;2.55;;
37409;SDS011;23275;48.914;12.566;2023-02-01T05:42:26;4.68;;;2.92;;
37409;SDS011;23275;48.914;12.566;2023-02-01T05:44:51;6.32;;;3.15;;
37409;SDS011;23275;48.914;12.566;2023-02-01T05:47:17;4.88;;;2.47;;
37409;SDS011;23275;48.914;12.566;2023-02-01T05:49:42;5.85;;;2.83;;
37409;SDS011;23275;48.914;12.566;2023-02-01T05:52:08;6.30;;;3.47;;
37409;SDS011;23275;48.914;12.566;2023-02-01T05:54:33;5.97;;;2.45;;
37409;SDS011;23275;48.914;12.566;2023-02-01T05:56:59;5.63;;;2.90;;
37409;SDS011;23275;48.914;12.566;2023-02-01T05:59:24;6.28;;;2.75;;
37409;SDS011;23275;48.914;12.566;2023-02-01T06:01:50;6.35;;;2.45;;
37409;SDS011;23275;48.914;12.566;2023-02-01T06:04:16;5.22;;;2.40;;
37409;SDS011;23275;48.914;12.566;2023-02-01T06:06:41;4.97;;;2.42;;
37409;SDS011;23275;48.914;12.566;2023-02-01T06:09:07;6.07;;;2.80;;
37409;SDS011;23275;48.914;12.566;2023-02-01T06:11:32;6.25;;;3.03;;
37409;SDS011;23275;48.914;12.566;2023-02-01T06:13:58;5.40;;;2.92;;
37409;SDS011;23275;48.914;12.566;2023-02-01T06:16:24;5.65;;;3.03;;
37409;SDS011;23275;48.914;12.566;2023-02-01T06:18:50;6.32;;;2.92;;
37409;SDS011;23275;48.914;12.566;2023-02-01T06:21:15;5.55;;;2.53;;
37409;SDS011;23275;48.914;12.566;2023-02-01T06:23:49;4.63;;;2.40;;
37409;SDS011;23275;48.914;12.566;2023-02-01T06:26:15;5.88;;;2.65;;
37409;SDS011;23275;48.914;12.566;2023-02-01T06:28:42;5.60;;;2.78;;
37409;SDS011;23275;48.914;12.566;2023-02-01T06:31:08;6.00;;;3.03;;
37409;SDS011;23275;48.914;12.566;2023-02-01T06:33:34;6.82;;;2.80;;
37409;SDS011;23275;48.914;12.566;2023-02-01T06:36:01;5.32;;;2.67;;
37409;SDS011;23275;48.914;12.566;2023-02-01T06:38:29;4.30;;;2.72;;
37409;SDS011;23275;48.914;12.566;2023-02-01T06:40:56;4.15;;;2.70;;
37409;SDS011;23275;48.914;12.566;2023-02-01T06:43:23;5.45;;;2.85;;
37409;SDS011;23275;48.914;12.566;2023-02-01T06:45:49;5.40;;;2.75;;
37409;SDS011;23275;48.914;12.566;2023-02-01T06:48:15;4.80;;;2.75;;
37409;SDS011;23275;48.914;12.566;2023-02-01T06:50:40;5.78;;;2.70;;
37409;SDS011;23275;48.914;12.566;2023-02-01T06:53:06;5.65;;;2.63;;
37409;SDS011;23275;48.914;12.566;2023-02-01T06:55:31;5.05;;;2.58;;
37409;SDS011;23275;48.914;12.566;2023-02-01T06:57:57;5.70;;;2.30;;
37409;SDS011;23275;48.914;12.566;2023-02-01T07:00:23;5.60;;;2.83;;
37409;SDS011;23275;48.914;12.566;2023-02-01T07:02:48;5.25;;;2.60;;
37409;SDS011;23275;48.914;12.566;2023-02-01T07:05:14;7.35;;;2.75;;
37409;SDS011;23275;48.914;12.566;2023-02-01T07:07:40;3.75;;;2.30;;
37409;SDS011;23275;48.914;12.566;2023-02-01T07:10:06;5.03;;;2.70;;
37409;SDS011;23275;48.914;12.566;2023-02-01T07:12:32;7.35;;;2.90;;
37409;SDS011;23275;48.914;12.566;2023-02-01T07:14:57;4.60;;;2.90;;
37409;SDS011;23275;48.914;12.566;2023-02-01T07:17:23;4.47;;;2.35;;
37409;SDS011;23275;48.914;12.566;2023-02-01T07:19:48;4.80;;;2.42;;
37409;SDS011;23275;48.914;12.566;2023-02-01T07:22:17;3.67;;;2.17;;
37409;SDS011;23275;48.914;12.566;2023-02-01T07:24:42;6.18;;;2.67;;
37409;SDS011;23275;48.914;12.566;2023-02-01T07:27:08;3.65;;;2.13;;
37409;SDS011;23275;48.914;12.566;2023-02-01T07:29:33;5.72;;;2.17;;
37409;SDS011;23275;48.914;12.566;2023-02-01T07:31:59;4.65;;;2.47;;
37409;SDS011;23275;48.914;12.566;2023-02-01T07:34:26;5.32;;;2.10;;
37409;SDS011;23275;48.914;12.566;2023-02-01T07:36:52;3.92;;;2.30;;
37409;SDS011;23275;48.914;12.566;2023-02-01T07:39:17;3.83;;;2.38;;
37409;SDS011;23275;48.914;12.566;2023-02-01T07:41:43;4.32;;;2.03;;
37409;SDS011;23275;48.914;12.566;2023-02-01T07:44:08;6.90;;;3.15;;
37409;SDS011;23275;48.914;12.566;2023-02-01T07:46:34;6.03;;;3.10;;
37409;SDS011;23275;48.914;12.566;2023-02-01T07:49:00;4.18;;;2.28;;
37409;SDS011;23275;48.914;12.566;2023-02-01T07:51:26;5.53;;;2.63;;
37409;SDS011;23275;48.914;12.566;2023-02-01T07:53:52;4.22;;;2.13;;
37409;SDS011;23275;48.914;12.566;2023-02-01T07:56:18;3.70;;;1.85;;
37409;SDS011;23275;48.914;12.566;2023-02-01T07:58:48;6.40;;;3.00;;
37409;SDS011;23275;48.914;12.566;2023-02-01T08:01:19;7.03;;;2.85;;
37409;SDS011;23275;48.914;12.566;2023-02-01T08:03:50;7.70;;;4.22;;
37409;SDS011;23275;48.914;12.566;2023-02-01T08:06:18;4.88;;;3.10;;
37409;SDS011;23275;48.914;12.566;2023-02-01T08:08:47;6.82;;;2.50;;
37409;SDS011;23275;48.914;12.566;2023-02-01T08:11:14;4.65;;;2.60;;
37409;SDS011;23275;48.914;12.566;2023-02-01T08:13:40;7.65;;;4.25;;
37409;SDS011;23275;48.914;12.566;2023-02-01T08:16:07;6.63;;;4.43;;
37409;SDS011;23275;48.914;12.566;2023-02-01T08:18:34;4.72;;;3.22;;
37409;SDS011;23275;48.914;12.566;2023-02-01T08:21:11;5.72;;;2.70;;
37409;SDS011;23275;48.914;12.566;2023-02-01T08:23:39;5.78;;;3.10;;
37409;SDS011;23275;48.914;12.566;2023-02-01T08:28:40;4.97;;;2.67;;
37409;SDS011;23275;48.914;12.566;2023-02-01T08:31:13;6.53;;;2.83;;
37409;SDS011;23275;48.914;12.566;2023-02-01T08:33:40;6.43;;;2.55;;
37409;SDS011;23275;48.914;12.566;2023-02-01T08:36:07;4.10;;;2.28;;
37409;SDS011;23275;48.914;12.566;2023-02-01T08:38:35;4.97;;;2.50;;
37409;SDS011;23275;48.914;12.566;2023-02-01T08:41:06;4.03;;;2.30;;
37409;SDS011;23275;48.914;12.566;2023-02-01T08:43:32;5.35;;;2.80;;
37409;SDS011;23275;48.914;12.566;2023-02-01T08:45:58;5.47;;;2.55;;
37409;SDS011;23275;48.914;12.566;2023-02-01T08:48:24;3.70;;;2.47;;
37409;SDS011;23275;48.914;12.566;2023-02-01T08:50:49;5.38;;;2.22;;
37409;SDS011;23275;48.914;12.566;2023-02-01T08:53:15;3.50;;;2.20;;
37409;SDS011;23275;48.914;12.566;2023-02-01T08:55:41;5.35;;;2.28;;
37409;SDS011;23275;48.914;12.566;2023-02-01T08:58:06;6.30;;;3.25;;
37409;SDS011;23275;48.914;12.566;2023-02-01T09:00:32;4.55;;;2.72;;
37409;SDS011;23275;48.914;12.566;2023-02-01T09:02:57;8.52;;;5.30;;
37409;SDS011;23275;48.914;12.566;2023-02-01T09:05:23;7.07;;;3.70;;
37409;SDS011;23275;48.914;12.566;2023-02-01T09:07:51;4.10;;;2.75;;
37409;SDS011;23275;48.914;12.566;2023-02-01T09:10:18;5.65;;;2.80;;
37409;SDS011;23275;48.914;12.566;2023-02-01T09:12:43;4.38;;;2.85;;
37409;SDS011;23275;48.914;12.566;2023-02-01T09:15:09;5.45;;;3.25;;
37409;SDS011;23275;48.914;12.566;2023-02-01T09:17:35;4.80;;;3.05;;
37409;SDS011;23275;48.914;12.566;2023-02-01T09:20:00;5.90;;;2.83;;
37409;SDS011;23275;48.914;12.566;2023-02-01T09:22:27;5.57;;;2.50;;
37409;SDS011;23275;48.914;12.566;2023-02-01T09:24:52;4.25;;;2.42;;
37409;SDS011;23275;48.914;12.566;2023-02-01T09:27:18;4.88;;;2.08;;
37409;SDS011;23275;48.914;12.566;2023-02-01T09:29:44;4.78;;;2.30;;
37409;SDS011;23275;48.914;12.566;2023-02-01T09:32:09;3.05;;;1.90;;
37409;SDS011;23275;48.914;12.566;2023-02-01T09:34:35;5.07;;;2.67;;
37409;SDS011;23275;48.914;12.566;2023-02-01T09:37:01;4.30;;;2.38;;
37409;SDS011;23275;48.914;12.566;2023-02-01T09:39:27;5.25;;;2.45;;
37409;SDS011;23275;48.914;12.566;2023-02-01T09:47:15;4.57;;;1.55;;
37409;SDS011;23275;48.914;12.566;2023-02-01T09:49:56;5.57;;;1.63;;
37409;SDS011;23275;48.914;12.566;2023-02-01T09:52:47;4.05;;;1.58;;
37409;SDS011;23275;48.914;12.566;2023-02-01T09:55:23;2.78;;;1.38;;
37409;SDS011;23275;48.914;12.566;2023-02-01T10:00:51;5.97;;;2.00;;
37409;SDS011;23275;48.914;12.566;2023-02-01T10:03:18;2.97;;;1.30;;
37409;SDS011;23275;48.914;12.566;2023-02-01T10:11:25;5.50;;;2.20;;
37409;SDS011;23275;48.914;12.566;2023-02-01T10:16:42;3.80;;;2.33;;
37409;SDS011;23275;48.914;12.566;2023-02-01T10:21:54;11.82;;;5.75;;
37409;SDS011;23275;48.914;12.566;2023-02-01T10:24:37;9.60;;;6.38;;
37409;SDS011;23275;48.914;12.566;2023-02-01T10:29:39;8.15;;;4.30;;
37409;SDS011;23275;48.914;12.566;2023-02-01T10:32:11;5.07;;;3.35;;
37409;SDS011;23275;48.914;12.566;2023-02-01T10:34:40;5.70;;;3.60;;
37409;SDS011;23275;48.914;12.566;2023-02-01T10:37:23;6.43;;;3.78;;
37409;SDS011;23275;48.914;12.566;2023-02-01T10:39:53;7.80;;;4.07;;
37409;SDS011;23275;48.914;12.566;2023-02-01T10:42:25;10.10;;;4.20;;
37409;SDS011;23275;48.914;12.566;2023-02-01T10:44:52;6.35;;;3.85;;
37409;SDS011;23275;48.914;12.566;2023-02-01T10:47:24;10.73;;;4.10;;
37409;SDS011;23275;48.914;12.566;2023-02-01T10:49:52;8.93;;;4.88;;
37409;SDS011;23275;48.914;12.566;2023-02-01T10:55:40;8.52;;;5.97;;
37409;SDS011;23275;48.914;12.566;2023-02-01T10:58:18;6.65;;;4.65;;
37409;SDS011;23275;48.914;12.566;2023-02-01T11:06:09;7.82;;;4.25;;
37409;SDS011;23275;48.914;12.566;2023-02-01T11:08:47;9.35;;;4.35;;
37409;SDS011;23275;48.914;12.566;2023-02-01T11:11:14;10.23;;;5.25;;
37409;SDS011;23275;48.914;12.566;2023-02-01T11:13:40;8.38;;;3.58;;
37409;SDS011;23275;48.914;12.566;2023-02-01T11:16:06;5.07;;;3.25;;
37409;SDS011;23275;48.914;12.566;2023-02-01T11:21:06;7.30;;;3.80;;
37409;SDS011;23275;48.914;12.566;2023-02-01T11:23:36;6.88;;;3.60;;
37409;SDS011;23275;48.914;12.566;2023-02-01T11:26:19;8.05;;;4.05;;
37409;SDS011;23275;48.914;12.566;2023-02-01T11:28:51;10.15;;;2.90;;
37409;SDS011;23275;48.914;12.566;2023-02-01T11:31:24;8.05;;;2.58;;
37409;SDS011;23275;48.914;12.566;2023-02-01T11:34:04;6.85;;;1.85;;
37409;SDS011;23275;48.914;12.566;2023-02-01T11:36:38;7.93;;;1.80;;
37409;SDS011;23275;48.914;12.566;2023-02-01T11:44:35;7.88;;;1.30;;
37409;SDS011;23275;48.914;12.566;2023-02-01T11:47:25;7.88;;;1.70;;
37409;SDS011;23275;48.914;12.566;2023-02-01T11:49:52;7.78;;;1.75;;
37409;SDS011;23275;48.914;12.566;2023-02-01T12:00:39;7.65;;;2.10;;
37409;SDS011;23275;48.914;12.566;2023-02-01T12:03:40;11.70;;;2.35;;
37409;SDS011;23275;48.914;12.566;2023-02-01T12:09:00;4.72;;;1.98;;
37409;SDS011;23275;48.914;12.566;2023-02-01T12:16:56;14.00;;;4.25;;
37409;SDS011;23275;48.914;12.566;2023-02-01T12:24:55;12.38;;;2.80;;
37409;SDS011;23275;48.914;12.566;2023-02-01T12:41:26;7.68;;;3.05;;
37409;SDS011;23275;48.914;12.566;2023-02-01T12:44:16;9.65;;;3.58;;
37409;SDS011;23275;48.914;12.566;2023-02-01T12:46:47;8.48;;;4.05;;
37409;SDS011;23275;48.914;12.566;2023-02-01T12:49:18;11.68;;;6.20;;
37409;SDS011;23275;48.914;12.566;2023-02-01T12:52:20;15.50;;;5.22;;
37409;SDS011;23275;48.914;12.566;2023-02-01T12:55:03;9.35;;;3.65;;
37409;SDS011;23275;48.914;12.566;2023-02-01T13:05:16;7.38;;;2.17;;
37409;SDS011;23275;48.914;12.566;2023-02-01T13:13:08;7.57;;;2.53;;
37409;SDS011;23275;48.914;12.566;2023-02-01T13:15:48;10.20;;;2.72;;
37409;SDS011;23275;48.914;12.566;2023-02-01T13:18:31;9.27;;;2.75;;
37409;SDS011;23275;48.914;12.566;2023-02-01T13:21:04;7.97;;;2.85;;
37409;SDS011;23275;48.914;12.566;2023-02-01T13:23:38;10.95;;;2.80;;
37409;SDS011;23275;48.914;12.566;2023-02-01T13:26:05;9.95;;;4.38;;
37409;SDS011;23275;48.914;12.566;2023-02-01T13:29:06;12.23;;;2.20;;
37409;SDS011;23275;48.914;12.566;2023-02-01T13:31:51;12.13;;;2.65;;
37409;SDS011;23275;48.914;12.566;2023-02-01T13:34:35;8.15;;;2.45;;
37409;SDS011;23275;48.914;12.566;2023-02-01T13:37:23;8.20;;;3.67;;
37409;SDS011;23275;48.914;12.566;2023-02-01T13:43:04;12.85;;;2.90;;
37409;SDS011;23275;48.914;12.566;2023-02-01T13:45:41;11.10;;;4.78;;
37409;SDS011;23275;48.914;12.566;2023-02-01T13:48:21;8.20;;;2.83;;
37409;SDS011;23275;48.914;12.566;2023-02-01T13:50:55;14.25;;;3.38;;
37409;SDS011;23275;48.914;12.566;2023-02-01T13:53:30;12.07;;;3.42;;
37409;SDS011;23275;48.914;12.566;2023-02-01T13:55:59;5.00;;;2.67;;
37409;SDS011;23275;48.914;12.566;2023-02-01T13:58:37;9.68;;;4.07;;
37409;SDS011;23275;48.914;12.566;2023-02-01T14:03:49;9.48;;;3.25;;
37409;SDS011;23275;48.914;12.566;2023-02-01T14:11:51;8.43;;;2.88;;
37409;SDS011;23275;48.914;12.566;2023-02-01T14:19:25;7.65;;;2.95;;
37409;SDS011;23275;48.914;12.566;2023-02-01T14:21:56;8.10;;;3.05;;
37409;SDS011;23275;48.914;12.566;2023-02-01T14:26:59;9.73;;;3.70;;
37409;SDS011;23275;48.914;12.566;2023-02-01T14:29:35;12.10;;;4.45;;
37409;SDS011;23275;48.914;12.566;2023-02-01T14:32:04;8.52;;;3.25;;
37409;SDS011;23275;48.914;12.566;2023-02-01T14:47:48;6.65;;;2.83;;
37409;SDS011;23275;48.914;12.566;2023-02-01T14:55:57;10.85;;;3.67;;
37409;SDS011;23275;48.914;12.566;2023-02-01T14:58:45;8.73;;;3.00;;
37409;SDS011;23275;48.914;12.566;2023-02-01T15:04:06;7.78;;;2.38;;
37409;SDS011;23275;48.914;12.566;2023-02-01T15:06:33;10.85;;;2.88;;
37409;SDS011;23275;48.914;12.566;2023-02-01T15:11:52;7.57;;;2.47;;
37409;SDS011;23275;48.914;12.566;2023-02-01T15:14:23;8.80;;;2.45;;
37409;SDS011;23275;48.914;12.566;2023-02-01T15:16:49;8.00;;;2.50;;
37409;SDS011;23275;48.914;12.566;2023-02-01T15:19:19;8.77;;;2.33;;
37409;SDS011;23275;48.914;12.566;2023-02-01T15:21:51;9.73;;;2.25;;
37409;SDS011;23275;48.914;12.566;2023-02-01T15:24:20;9.48;;;2.33;;
37409;SDS011;23275;48.914;12.566;2023-02-01T15:26:46;12.38;;;4.15;;
37409;SDS011;23275;48.914;12.566;2023-02-01T15:29:12;12.25;;;2.50;;
37409;SDS011;23275;48.914;12.566;2023-02-01T15:31:44;8.73;;;2.17;;
37409;SDS011;23275;48.914;12.566;2023-02-01T15:34:14;10.18;;;2.15;;
37409;SDS011;23275;48.914;12.566;2023-02-01T15:36:40;8.88;;;2.47;;
37409;SDS011;23275;48.914;12.566;2023-02-01T15:39:14;12.32;;;2.72;;
37409;SDS011;23275;48.914;12.566;2023-02-01T15:42:10;7.05;;;2.50;;
37409;SDS011;23275;48.914;12.566;2023-02-01T15:44:39;9.02;;;1.85;;
37409;SDS011;23275;48.914;12.566;2023-02-01T15:47:10;8.70;;;2.53;;
37409;SDS011;23275;48.914;12.566;2023-02-01T15:49:57;5.97;;;1.70;;
37409;SDS011;23275;48.914;12.566;2023-02-01T15:55:01;6.20;;;2.50;;
37409;SDS011;23275;48.914;12.566;2023-02-01T15:57:31;9.07;;;2.07;;
37409;SDS011;23275;48.914;12.566;2023-02-01T16:00:00;9.38;;;2.60;;
37409;SDS011;23275;48.914;12.566;2023-02-01T16:02:37;9.00;;;3.45;;
37409;SDS011;23275;48.914;12.566;2023-02-01T16:05:42;12.32;;;3.45;;
37409;SDS011;23275;48.914;12.566;2023-02-01T16:08:09;11.82;;;4.97;;
37409;SDS011;23275;48.914;12.566;2023-02-01T16:10:38;15.63;;;5.85;;
37409;SDS011;23275;48.914;12.566;2023-02-01T16:13:06;15.60;;;5.47;;
37409;SDS011;23275;48.914;12.566;2023-02-01T16:15:32;14.30;;;4.57;;
37409;SDS011;23275;48.914;12.566;2023-02-01T16:17:58;13.25;;;3.95;;
37409;SDS011;23275;48.914;12.566;2023-02-01T16:20:24;12.73;;;4.03;;
37409;SDS011;23275;48.914;12.566;2023-02-01T16:22:50;9.48;;;3.65;;
37409;SDS011;23275;48.914;12.566;2023-02-01T16:25:15;15.02;;;4.40;;
37409;SDS011;23275;48.914;12.566;2023-02-01T16:27:41;9.20;;;3.42;;
37409;SDS011;23275;48.914;12.566;2023-02-01T16:30:07;15.40;;;4.00;;
37409;SDS011;23275;48.914;12.566;2023-02-01T16:32:35;9.05;;;2.80;;
37409;SDS011;23275;48.914;12.566;2023-02-01T16:35:05;26.45;;;11.32;;
37409;SDS011;23275;48.914;12.566;2023-02-01T16:37:45;39.30;;;17.15;;
37409;SDS011;23275;48.914;12.566;2023-02-01T16:40:13;35.65;;;15.25;;
37409;SDS011;23275;48.914;12.566;2023-02-01T16:42:39;20.98;;;8.45;;
37409;SDS011;23275;48.914;12.566;2023-02-01T16:45:05;21.10;;;7.57;;
37409;SDS011;23275;48.914;12.566;2023-02-01T16:47:32;16.55;;;6.15;;
37409;SDS011;23275;48.914;12.566;2023-02-01T16:49:58;24.13;;;8.50;;
37409;SDS011;23275;48.914;12.566;2023-02-01T16:52:24;13.45;;;5.07;;
37409;SDS011;23275;48.914;12.566;2023-02-01T16:54:51;17.55;;;5.78;;
37409;SDS011;23275;48.914;12.566;2023-02-01T16:57:18;13.68;;;4.13;;
37409;SDS011;23275;48.914;12.566;2023-02-01T16:59:47;11.35;;;3.85;;
37409;SDS011;23275;48.914;12.566;2023-02-01T17:02:13;15.10;;;4.03;;
37409;SDS011;23275;48.914;12.566;2023-02-01T17:04:41;17.85;;;6.97;;
37409;SDS011;23275;48.914;12.566;2023-02-01T17:07:17;12.98;;;4.82;;
37409;SDS011;23275;48.914;12.566;2023-02-01T17:09:45;17.70;;;4.72;;
37409;SDS011;23275;48.914;12.566;2023-02-01T17:12:21;14.23;;;4.10;;
37409;SDS011;23275;48.914;12.566;2023-02-01T17:14:49;12.05;;;3.90;;
37409;SDS011;23275;48.914;12.566;2023-02-01T17:17:16;10.38;;;2.60;;
37409;SDS011;23275;48.914;12.566;2023-02-01T17:19:44;11.25;;;2.88;;
37409;SDS011;23275;48.914;12.566;2023-02-01T17:22:21;8.63;;;2.00;;
37409;SDS011;23275;48.914;12.566;2023-02-01T17:24:47;9.90;;;1.98;;
37409;SDS011;23275;48.914;12.566;2023-02-01T17:27:14;6.20;;;2.00;;
37409;SDS011;23275;48.914;12.566;2023-02-01T17:29:41;10.63;;;2.15;;
37409;SDS011;23275;48.914;12.566;2023-02-01T17:32:09;8.60;;;2.75;;
37409;SDS011;23275;48.914;12.566;2023-02-01T17:34:46;10.35;;;2.30;;
37409;SDS011;23275;48.914;12.566;2023-02-01T17:37:31;10.45;;;2.03;;